Time;durP1;ratioP1;P1;durP2;ratioP2;P2;SDS_P1;SDS_P2;PMS_P1;PMS_P2;Temp;Humidity;BMP_temperature;BMP_pressure;BME280_temperature;BME280_humidity;BME280_pressure;Samples;Min_cycle;Max_cycle;Signal;HPM_P1;HPM_P2
2024/04/13 00:03:43;;;;;;;;;;;;;;;10.72;100.00;96895.81;10963413;26;3000;-70
2024/04/13 00:08:49;;;;;;;;;;;;;;;10.71;100.00;96900.38;10950783;26;3118;-70
2024/04/13 00:13:54;;;;;;;;;;;;;;;10.74;100.00;96893.69;10956643;26;3219;-70
2024/04/13 00:18:58;;;;;;;;;;;;;;;10.77;100.00;96888.63;10960159;26;3123;-70
2024/04/13 00:24:02;;;;;;;;;;;;;;;10.77;100.00;96888.63;10905663;26;3130;-69
2024/04/13 00:29:09;;;;;;;;;;;;;;;10.73;100.00;96882.09;10944801;26;3123;-70
2024/04/13 00:34:13;;;;;;;;;;;;;;;10.71;100.00;96878.88;10951370;26;3224;-69
2024/04/13 00:39:18;;;;;;;;;;;;;;;10.67;100.00;96883.09;10961540;26;3110;-69
2024/04/13 00:44:23;;;;;;;;;;;;;;;10.65;100.00;96879.84;10957891;26;3238;-68
2024/04/13 00:49:27;;;;;;;;;;;;;;;10.57;100.00;96885.66;10954137;26;3243;-70
2024/04/13 00:54:31;;;;;;;;;;;;;;;10.58;100.00;96884.59;10949028;26;2987;-70
2024/04/13 00:59:37;;;;;;;;;;;;;;;10.59;100.00;96882.72;10962503;26;2549;-69
2024/04/13 01:04:47;;;;;;;;;;;;;;;10.51;100.00;96879.38;10952489;26;3233;-72
2024/04/13 01:09:54;;;;;;;;;;;;;;;10.50;100.00;96885.00;10955059;26;3363;-69
2024/04/13 01:15:00;;;;;;;;;;;;;;;10.41;100.00;96889.97;10957455;26;3004;-69
2024/04/13 01:20:06;;;;;;;;;;;;;;;10.35;100.00;96890.13;10953745;26;3040;-68
2024/04/13 01:25:10;;;;;;;;;;;;;;;10.37;100.00;96898.75;10947403;26;3241;-70
2024/04/13 01:30:15;;;;;;;;;;;;;;;10.26;100.00;96893.25;10950384;26;3154;-71
2024/04/13 01:35:19;;;;;;;;;;;;;;;10.21;100.00;96901.19;10942616;26;3134;-68
2024/04/13 01:40:24;;;;;;;;;;;;;;;10.17;100.00;96899.22;10943435;26;3004;-69
2024/04/13 01:45:29;;;;;;;;;;;;;;;10.05;100.00;96891.22;10955855;26;3272;-69
2024/04/13 01:50:33;;;;;;;;;;;;;;;9.99;100.00;96897.59;10952139;26;3373;-69
2024/04/13 01:55:39;;;;;;;;;;;;;;;9.90;100.00;96888.28;10953556;26;2948;-68
2024/04/13 02:00:43;;;;;;;;;;;;;;;9.80;100.00;96888.94;10952271;26;3103;-69
2024/04/13 02:05:47;;;;;;;;;;;;;;;9.75;100.00;96888.84;10952383;26;3114;-68
2024/04/13 02:10:52;;;;;;;;;;;;;;;9.70;100.00;96889.53;10933967;26;2947;-68
2024/04/13 02:15:57;;;;;;;;;;;;;;;9.68;100.00;96883.59;10963083;26;3110;-69
2024/04/13 02:21:01;;;;;;;;;;;;;;;9.74;100.00;96879.97;10954361;26;2997;-68
2024/04/13 02:26:07;;;;;;;;;;;;;;;9.77;100.00;96872.47;10955232;26;3114;-70
2024/04/13 02:31:12;;;;;;;;;;;;;;;9.70;100.00;96886.84;10977421;26;3241;-69
2024/04/13 02:36:16;;;;;;;;;;;;;;;9.70;100.00;96870.75;10931982;26;3306;-68
2024/04/13 02:41:20;;;;;;;;;;;;;;;9.67;100.00;96890.03;10942248;26;3143;-70
2024/04/13 02:46:25;;;;;;;;;;;;;;;9.56;100.00;96893.59;10960871;26;3169;-69
2024/04/13 02:51:30;;;;;;;;;;;;;;;9.44;100.00;96890.13;10957920;26;3103;-69
2024/04/13 02:56:34;;;;;;;;;;;;;;;9.38;100.00;96891.88;10956270;26;3141;-69
2024/04/13 03:01:39;;;;;;;;;;;;;;;9.38;100.00;96904.50;10951168;26;2889;-70
2024/04/13 03:06:44;;;;;;;;;;;;;;;9.35;100.00;96913.00;10989365;26;3081;-70
2024/04/13 03:11:49;;;;;;;;;;;;;;;9.32;100.00;96905.44;10965575;26;2966;-68
2024/04/13 03:16:53;;;;;;;;;;;;;;;9.31;100.00;96918.03;10955682;26;3149;-70
2024/04/13 03:21:57;;;;;;;;;;;;;;;9.26;100.00;96925.16;10953273;26;3302;-71
2024/04/13 03:27:02;;;;;;;;;;;;;;;9.17;100.00;96922.88;10910315;26;2996;-70
2024/04/13 03:32:07;;;;;;;;;;;;;;;9.05;100.00;96919.38;10951052;26;2996;-73
2024/04/13 03:37:11;;;;;;;;;;;;;;;8.99;100.00;96925.69;10961643;26;3004;-68
2024/04/13 03:42:16;;;;;;;;;;;;;;;8.93;100.00;96924.75;10941514;26;3053;-69
2024/04/13 03:47:20;;;;;;;;;;;;;;;8.87;100.00;96927.56;10934391;26;2956;-70
2024/04/13 03:52:37;;;;;;;;;;;;;;;8.83;100.00;96943.28;10916275;26;3091;-70
2024/04/13 03:57:43;;;;;;;;;;;;;;;8.80;100.00;96926.88;10958955;26;2868;-71
2024/04/13 04:02:47;;;;;;;;;;;;;;;8.72;100.00;96932.59;10953405;26;3137;-71
2024/04/13 04:07:52;;;;;;;;;;;;;;;8.69;100.00;96936.53;10950521;26;3453;-70
2024/04/13 04:12:57;;;;;;;;;;;;;;;8.64;100.00;96928.38;10955174;26;3140;-68
2024/04/13 04:18:02;;;;;;;;;;;;;;;8.63;100.00;96930.25;10964349;26;3079;-68
2024/04/13 04:23:07;;;;;;;;;;;;;;;8.60;100.00;96928.03;10957647;26;3206;-71
2024/04/13 04:28:12;;;;;;;;;;;;;;;8.62;100.00;96935.84;10954157;26;3106;-71
2024/04/13 04:33:16;;;;;;;;;;;;;;;8.67;100.00;96933.28;10954655;26;3087;-69
2024/04/13 04:38:21;;;;;;;;;;;;;;;8.78;100.00;96942.34;10982490;26;3107;-68
2024/04/13 04:43:25;;;;;;;;;;;;;;;8.91;100.00;96939.47;10954547;26;3227;-68
2024/04/13 04:48:29;;;;;;;;;;;;;;;8.98;100.00;96945.50;10961549;26;3325;-68
2024/04/13 04:53:34;;;;;;;;;;;;;;;9.21;100.00;96941.97;10953762;26;3128;-70
2024/04/13 04:58:38;;;;;;;;;;;;;;;9.54;100.00;96943.16;10957604;26;2957;-69
2024/04/13 05:03:43;;;;;;;;;;;;;;;10.01;100.00;96925.00;10952963;26;3272;-72
2024/04/13 05:08:48;;;;;;;;;;;;;;;10.47;100.00;96925.81;10951952;26;2776;-68
2024/04/13 05:13:52;;;;;;;;;;;;;;;10.78;100.00;96922.53;10956338;26;2952;-69
2024/04/13 05:18:56;;;;;;;;;;;;;;;10.97;100.00;96922.25;10956675;26;3110;-68
2024/04/13 05:24:01;;;;;;;;;;;;;;;11.44;100.00;96919.91;10951602;26;3122;-70
2024/04/13 05:29:05;;;;;;;;;;;;;;;12.00;100.00;96914.34;10933295;26;2987;-69
2024/04/13 05:34:10;;;;;;;;;;;;;;;12.60;100.00;96913.28;10953699;26;3748;-70
2024/04/13 05:39:14;;;;;;;;;;;;;;;12.85;100.00;96918.00;10960348;26;3256;-69
2024/04/13 05:44:19;;;;;;;;;;;;;;;13.19;100.00;96905.81;10953036;26;3253;-69
2024/04/13 05:49:23;;;;;;;;;;;;;;;13.30;100.00;96911.31;10958855;26;2952;-69
2024/04/13 05:54:27;;;;;;;;;;;;;;;13.63;100.00;96913.59;10955804;26;3138;-70
2024/04/13 05:59:32;;;;;;;;;;;;;;;13.75;100.00;96908.78;10959845;26;2940;-69
2024/04/13 06:04:36;;;;;;;;;;;;;;;14.06;100.00;96912.38;10945201;26;3223;-70
2024/04/13 06:09:41;;;;;;;;;;;;;;;14.23;100.00;96911.28;10955153;26;3131;-69
2024/04/13 06:14:54;;;;;;;;;;;;;;;14.76;100.00;96918.13;11035095;26;3229;-70
2024/04/13 06:19:59;;;;;;;;;;;;;;;15.36;100.00;96912.81;11038160;26;2857;-71
2024/04/13 06:25:09;;;;;;;;;;;;;;;15.56;100.00;96899.19;11045214;26;3017;-72
2024/04/13 06:30:15;;;;;;;;;;;;;;;15.39;100.00;96893.28;11021637;26;2865;-71
2024/04/13 06:35:22;;;;;;;;;;;;;;;15.73;100.00;96890.75;11032170;26;3234;-71
2024/04/13 06:40:27;;;;;;;;;;;;;;;16.19;100.00;96893.19;11027836;26;2953;-72
2024/04/13 06:45:32;;;;;;;;;;;;;;;16.38;100.00;96887.88;11026527;26;3024;-72
2024/04/13 06:50:36;;;;;;;;;;;;;;;16.55;100.00;96888.31;11028268;26;3092;-71
2024/04/13 06:55:40;;;;;;;;;;;;;;;16.74;100.00;96872.16;11029448;26;3010;-71
2024/04/13 07:00:45;;;;;;;;;;;;;;;16.79;100.00;96884.84;11038107;26;3454;-71
2024/04/13 07:05:49;;;;;;;;;;;;;;;16.62;100.00;96880.63;11035961;26;3204;-70
2024/04/13 07:10:53;;;;;;;;;;;;;;;16.82;100.00;96892.44;11035623;26;3151;-70
2024/04/13 07:15:58;;;;;;;;;;;;;;;16.54;100.00;96892.13;11036039;26;2936;-73
2024/04/13 07:21:04;;;;;;;;;;;;;;;16.79;100.00;96891.09;11036069;26;3238;-71
2024/04/13 07:26:08;;;;;;;;;;;;;;;17.25;100.00;96888.72;11037575;26;2957;-71
2024/04/13 07:31:12;;;;;;;;;;;;;;;17.62;100.00;96892.63;11004078;26;3087;-74
2024/04/13 07:36:18;;;;;;;;;;;;;;;17.73;100.00;96883.28;11034476;26;3114;-76
2024/04/13 07:41:23;;;;;;;;;;;;;;;17.97;100.00;96876.97;11033937;26;3175;-70
2024/04/13 07:46:27;;;;;;;;;;;;;;;18.13;100.00;96864.75;11026459;26;3001;-67
2024/04/13 07:51:34;;;;;;;;;;;;;;;18.63;100.00;96871.28;11035212;26;3015;-70
2024/04/13 07:56:38;;;;;;;;;;;;;;;18.40;100.00;96876.88;11034106;26;2873;-69
2024/04/13 08:01:45;;;;;;;;;;;;;;;18.73;100.00;96873.06;11032782;26;2992;-70
2024/04/13 08:06:51;;;;;;;;;;;;;;;19.21;100.00;96872.72;11026822;26;2881;-69
2024/04/13 08:11:57;;;;;;;;;;;;;;;19.35;100.00;96868.09;11033309;26;2976;-70
2024/04/13 08:17:02;;;;;;;;;;;;;;;19.34;100.00;96871.94;11024257;26;3119;-71
2024/04/13 08:22:08;;;;;;;;;;;;;;;19.23;100.00;96881.44;11032729;26;3116;-71
2024/04/13 08:27:13;;;;;;;;;;;;;;;19.62;100.00;96866.50;11024141;26;3151;-71
2024/04/13 08:32:17;;;;;;;;;;;;;;;19.81;100.00;96871.84;11026107;26;3230;-70
2024/04/13 08:37:22;;;;;;;;;;;;;;;20.00;100.00;96863.50;11024944;26;2970;-70
2024/04/13 08:42:26;;;;;;;;;;;;;;;19.92;100.00;96859.59;11023161;26;3314;-70
2024/04/13 08:47:30;;;;;;;;;;;;;;;20.09;100.00;96853.47;11024017;26;3044;-71
2024/04/13 08:52:35;;;;;;;;;;;;;;;20.07;100.00;96855.69;11028822;26;3099;-70
2024/04/13 08:57:39;;;;;;;;;;;;;;;20.63;100.00;96851.66;11030716;26;3096;-71
2024/04/13 09:02:44;;;;;;;;;;;;;;;20.68;100.00;96852.34;11030749;26;3130;-70
2024/04/13 09:07:48;;;;;;;;;;;;;;;20.56;100.00;96854.81;11028998;26;3264;-70
2024/04/13 09:12:52;;;;;;;;;;;;;;;20.73;100.00;96852.19;11032583;26;3028;-70
2024/04/13 09:17:57;;;;;;;;;;;;;;;20.70;100.00;96854.75;11029559;26;3057;-71
2024/04/13 09:23:01;;;;;;;;;;;;;;;20.55;100.00;96844.19;11028890;26;3614;-71
2024/04/13 09:28:06;;;;;;;;;;;;;;;20.96;100.00;96850.22;11027291;26;3016;-71
2024/04/13 09:33:11;;;;;;;;;;;;;;;20.91;100.00;96842.16;11027006;26;3121;-71
2024/04/13 09:38:16;;;;;;;;;;;;;;;20.80;100.00;96827.16;11035644;26;3210;-70
2024/04/13 09:43:20;;;;;;;;;;;;;;;21.37;100.00;96824.50;11032480;26;3064;-71
2024/04/13 09:48:24;;;;;;;;;;;;;;;21.23;100.00;96819.13;11031339;26;3120;-70
2024/04/13 09:53:29;;;;;;;;;;;;;;;21.04;100.00;96813.91;11035031;26;2870;-71
2024/04/13 09:58:33;;;;;;;;;;;;;;;21.61;100.00;96804.94;11029211;26;3238;-71
2024/04/13 10:03:38;;;;;;;;;;;;;;;21.78;95.46;96806.91;11026482;26;3219;-71
2024/04/13 10:08:43;;;;;;;;;;;;;;;21.90;91.30;96787.91;10990480;26;3155;-71
2024/04/13 10:13:47;;;;;;;;;;;;;;;21.32;93.56;96789.13;11022818;26;3148;-71
2024/04/13 10:18:51;;;;;;;;;;;;;;;21.18;97.78;96786.47;11031025;26;3109;-69
2024/04/13 10:23:56;;;;;;;;;;;;;;;21.30;95.32;96783.97;11026506;26;3136;-71
2024/04/13 10:29:01;;;;;;;;;;;;;;;21.51;93.99;96775.19;11025985;26;2944;-72
2024/04/13 10:34:05;;;;;;;;;;;;;;;21.53;94.94;96767.44;11028130;26;3230;-71
2024/04/13 10:39:10;;;;;;;;;;;;;;;21.64;89.02;96760.53;11002215;26;2997;-71
2024/04/13 10:44:14;;;;;;;;;;;;;;;21.72;83.20;96753.47;11032700;26;3127;-71
2024/04/13 10:49:19;;;;;;;;;;;;;;;21.54;86.70;96747.16;11026629;26;4177;-71
2024/04/13 10:54:26;;;;;;;;;;;;;;;21.57;84.14;96744.59;11034377;26;3119;-72
2024/04/13 10:59:30;;;;;;;;;;;;;;;21.95;80.17;96738.50;11028774;26;2489;-70
2024/04/13 11:04:34;;;;;;;;;;;;;;;22.06;77.23;96733.47;11034757;26;3005;-71
2024/04/13 11:09:38;;;;;;;;;;;;;;;22.15;72.97;96725.28;11031539;26;3231;-72
2024/04/13 11:14:44;;;;;;;;;;;;;;;21.92;77.47;96722.69;11032092;26;3277;-71
2024/04/13 11:19:48;;;;;;;;;;;;;;;21.80;72.75;96708.88;11033226;26;3230;-71
2024/04/13 11:24:53;;;;;;;;;;;;;;;21.85;74.90;96706.78;11033608;26;3210;-71
2024/04/13 11:29:57;;;;;;;;;;;;;;;22.01;75.05;96698.88;11019381;26;3651;-70
2024/04/13 11:35:01;;;;;;;;;;;;;;;22.18;71.62;96697.25;11029863;26;3180;-70
2024/04/13 11:40:05;;;;;;;;;;;;;;;21.98;72.25;96685.81;11027868;26;3143;-69
2024/04/13 11:45:10;;;;;;;;;;;;;;;22.09;70.92;96667.97;11030745;26;3245;-71
2024/04/13 11:50:14;;;;;;;;;;;;;;;22.08;73.31;96669.06;11034150;26;2988;-70
2024/04/13 11:55:18;;;;;;;;;;;;;;;22.11;73.76;96667.63;11031946;26;3097;-71
2024/04/13 12:00:25;;;;;;;;;;;;;;;22.52;71.90;96652.50;11031964;26;3055;-71
2024/04/13 12:05:30;;;;;;;;;;;;;;;22.58;71.17;96646.50;11032412;26;3158;-71
2024/04/13 12:10:34;;;;;;;;;;;;;;;22.67;68.49;96647.28;11031552;26;3323;-73
2024/04/13 12:15:38;;;;;;;;;;;;;;;22.99;62.95;96645.03;11025167;26;3100;-69
2024/04/13 12:20:43;;;;;;;;;;;;;;;22.89;57.28;96631.69;11030755;26;3064;-71
2024/04/13 12:25:47;;;;;;;;;;;;;;;23.27;57.27;96622.56;11048415;26;2377;-73
2024/04/13 12:30:52;;;;;;;;;;;;;;;23.55;59.51;96612.66;11030294;26;3005;-71
2024/04/13 12:35:58;;;;;;;;;;;;;;;23.77;59.40;96594.22;11029964;26;3128;-70
2024/04/13 12:41:04;;;;;;;;;;;;;;;24.02;57.16;96601.38;11031295;26;3115;-70
2024/04/13 12:46:08;;;;;;;;;;;;;;;24.46;53.14;96588.75;11030786;26;3140;-70
2024/04/13 12:51:15;;;;;;;;;;;;;;;24.25;51.46;96588.03;10985804;26;3691;-70
2024/04/13 12:56:19;;;;;;;;;;;;;;;24.48;51.40;96577.41;11028252;26;3170;-70
2024/04/13 13:01:24;;;;;;;;;;;;;;;24.72;47.19;96565.63;11023887;26;2974;-71
2024/04/13 13:06:28;;;;;;;;;;;;;;;24.68;44.16;96562.75;11022087;26;2969;-70
2024/04/13 13:11:33;;;;;;;;;;;;;;;25.00;41.28;96555.50;11024404;26;3242;-72
2024/04/13 13:16:38;;;;;;;;;;;;;;;25.51;39.47;96547.53;11022778;26;3156;-71
2024/04/13 13:21:42;;;;;;;;;;;;;;;25.62;39.36;96553.31;11022457;26;3246;-71
2024/04/13 13:26:47;;;;;;;;;;;;;;;25.95;37.90;96549.50;11025538;26;2963;-69
2024/04/13 13:31:51;;;;;;;;;;;;;;;26.29;38.17;96545.25;11027391;26;3286;-71
2024/04/13 13:36:55;;;;;;;;;;;;;;;26.45;37.28;96532.28;11021555;26;3207;-71
2024/04/13 13:41:59;;;;;;;;;;;;;;;26.18;36.48;96522.94;11020051;26;3203;-70
2024/04/13 13:47:04;;;;;;;;;;;;;;;26.66;35.18;96513.47;11025493;26;3005;-70
2024/04/13 13:52:08;;;;;;;;;;;;;;;26.21;34.69;96508.47;11025418;26;3201;-73
2024/04/13 13:57:12;;;;;;;;;;;;;;;26.42;34.58;96496.38;11032531;26;3002;-70
2024/04/13 14:02:19;;;;;;;;;;;;;;;26.14;33.91;96498.03;11023205;26;3151;-70
2024/04/13 14:07:23;;;;;;;;;;;;;;;26.26;34.70;96488.06;11025782;26;2964;-71
2024/04/13 14:12:27;;;;;;;;;;;;;;;26.47;35.19;96476.81;11019054;26;3152;-70
2024/04/13 14:17:32;;;;;;;;;;;;;;;26.60;35.59;96475.53;11017790;26;3727;-71
2024/04/13 14:22:38;;;;;;;;;;;;;;;26.40;35.38;96467.22;11014650;26;3099;-71
2024/04/13 14:27:42;;;;;;;;;;;;;;;26.16;36.62;96467.41;11021214;26;2936;-71
2024/04/13 14:32:46;;;;;;;;;;;;;;;26.34;35.78;96462.31;11026479;26;3087;-71
2024/04/13 14:37:52;;;;;;;;;;;;;;;26.31;36.58;96447.25;11024836;26;3186;-71
2024/04/13 14:42:57;;;;;;;;;;;;;;;26.39;35.38;96443.50;11012053;26;2920;-71
2024/04/13 14:48:01;;;;;;;;;;;;;;;26.34;37.55;96440.25;11027208;26;3030;-70
2024/04/13 14:53:06;;;;;;;;;;;;;;;25.69;39.30;96429.59;11027853;26;3217;-71
2024/04/13 14:58:11;;;;;;;;;;;;;;;25.96;40.61;96429.88;11020708;26;3161;-70
2024/04/13 15:03:18;;;;;;;;;;;;;;;25.83;40.70;96431.94;11021084;26;3112;-73
2024/04/13 15:08:23;;;;;;;;;;;;;;;25.62;41.39;96426.69;11023803;26;3065;-70
2024/04/13 15:13:28;;;;;;;;;;;;;;;25.19;42.59;96433.81;11024832;26;3203;-70
2024/04/13 15:18:33;;;;;;;;;;;;;;;25.46;44.03;96425.88;11032811;26;2953;-71
2024/04/13 15:23:37;;;;;;;;;;;;;;;25.19;45.26;96430.25;11029251;26;3202;-70
2024/04/13 15:28:42;;;;;;;;;;;;;;;25.12;46.15;96421.81;11035500;26;3143;-70
2024/04/13 15:33:46;;;;;;;;;;;;;;;25.06;48.91;96424.81;11027830;26;3128;-69
2024/04/13 15:38:50;;;;;;;;;;;;;;;24.91;50.15;96411.00;11017194;26;2973;-69
2024/04/13 15:43:55;;;;;;;;;;;;;;;24.72;50.74;96401.47;11027325;26;3115;-70
2024/04/13 15:49:00;;;;;;;;;;;;;;;24.78;51.78;96402.81;11015754;26;3347;-70
2024/04/13 15:54:05;;;;;;;;;;;;;;;24.94;50.06;96393.78;10995782;26;3246;-69
2024/04/13 15:59:16;;;;;;;;;;;;;;;24.73;50.24;96386.56;11034783;26;3229;-69
2024/04/13 16:04:20;;;;;;;;;;;;;;;24.40;52.21;96386.00;11031267;26;2997;-70
2024/04/13 16:09:24;;;;;;;;;;;;;;;23.99;53.57;96382.41;11027137;26;3237;-71
2024/04/13 16:14:29;;;;;;;;;;;;;;;23.95;53.61;96376.78;11028421;26;3087;-69
2024/04/13 16:19:34;;;;;;;;;;;;;;;23.76;57.29;96375.78;11024047;26;2921;-70
2024/04/13 16:24:40;;;;;;;;;;;;;;;23.75;57.93;96374.19;11026402;26;3100;-72
2024/04/13 16:29:45;;;;;;;;;;;;;;;23.79;58.29;96375.06;11024762;26;3211;-70
2024/04/13 16:34:49;;;;;;;;;;;;;;;23.87;58.45;96371.44;11029684;26;3234;-70
2024/04/13 16:39:53;;;;;;;;;;;;;;;23.59;58.98;96365.78;11023092;26;3251;-70
2024/04/13 16:44:58;;;;;;;;;;;;;;;23.64;60.76;96365.59;11012549;26;3231;-72
2024/04/13 16:50:02;;;;;;;;;;;;;;;23.51;60.82;96363.97;11025819;26;3111;-69
2024/04/13 16:55:07;;;;;;;;;;;;;;;23.26;62.57;96360.41;11022834;26;3154;-73
2024/04/13 17:00:12;;;;;;;;;;;;;;;23.08;65.40;96352.34;11023328;26;3132;-75
2024/04/13 17:05:17;;;;;;;;;;;;;;;22.88;67.58;96366.94;11025078;26;3238;-70
2024/04/13 17:10:21;;;;;;;;;;;;;;;22.70;69.33;96357.25;11020481;26;3238;-70
2024/04/13 17:15:26;;;;;;;;;;;;;;;22.54;73.11;96355.16;11023206;26;2959;-72
2024/04/13 17:20:30;;;;;;;;;;;;;;;22.27;74.52;96350.25;11028163;26;3092;-69
2024/04/13 17:25:34;;;;;;;;;;;;;;;22.01;89.41;96353.94;10998327;26;3215;-70
2024/04/13 17:30:39;;;;;;;;;;;;;;;21.68;95.35;96347.53;11029632;26;2864;-70
2024/04/13 17:35:44;;;;;;;;;;;;;;;21.35;99.63;96350.94;11028249;26;3036;-70
2024/04/13 17:40:48;;;;;;;;;;;;;;;21.24;100.00;96349.66;11027728;26;3045;-69
2024/04/13 17:45:52;;;;;;;;;;;;;;;20.88;100.00;96342.72;11029791;26;3111;-69
2024/04/13 17:50:57;;;;;;;;;;;;;;;20.41;100.00;96337.13;11034977;26;3123;-69
2024/04/13 17:56:01;;;;;;;;;;;;;;;20.14;100.00;96348.38;11030168;26;3244;-71
2024/04/13 18:01:05;;;;;;;;;;;;;;;19.94;100.00;96350.63;11027232;26;2952;-69
2024/04/13 18:06:10;;;;;;;;;;;;;;;19.57;100.00;96351.97;11026901;26;3184;-69
2024/04/13 18:11:17;;;;;;;;;;;;;;;19.30;100.00;96363.09;11030830;26;3057;-69
2024/04/13 18:16:25;;;;;;;;;;;;;;;18.97;100.00;96349.81;11030102;26;3112;-70
2024/04/13 18:21:30;;;;;;;;;;;;;;;18.76;100.00;96354.97;11028775;26;3131;-71
2024/04/13 18:26:35;;;;;;;;;;;;;;;18.64;100.00;96352.81;11029473;26;3131;-70
2024/04/13 18:31:41;;;;;;;;;;;;;;;18.41;100.00;96361.28;11028320;26;3055;-70
2024/04/13 18:36:45;;;;;;;;;;;;;;;18.26;100.00;96367.91;11029669;26;3201;-69
2024/04/13 18:41:50;;;;;;;;;;;;;;;18.15;100.00;96361.91;11028331;26;2953;-71
2024/04/13 18:46:54;;;;;;;;;;;;;;;18.05;100.00;96367.56;11030555;26;3069;-71
2024/04/13 18:51:59;;;;;;;;;;;;;;;17.89;100.00;96364.38;11034489;26;3235;-74
2024/04/13 18:57:06;;;;;;;;;;;;;;;17.74;100.00;96370.13;11031420;26;3229;-73
2024/04/13 19:02:10;;;;;;;;;;;;;;;17.56;100.00;96366.44;11033198;26;3201;-71
2024/04/13 19:07:14;;;;;;;;;;;;;;;17.37;100.00;96373.84;11035987;26;3242;-70
2024/04/13 19:12:19;;;;;;;;;;;;;;;17.22;100.00;96372.25;11033031;26;2985;-71
2024/04/13 19:17:23;;;;;;;;;;;;;;;17.08;100.00;96374.97;11033053;26;3233;-70
2024/04/13 19:22:27;;;;;;;;;;;;;;;17.01;100.00;96369.94;11032278;26;3218;-70
2024/04/13 19:27:32;;;;;;;;;;;;;;;16.91;100.00;96367.38;11032973;26;2975;-69
2024/04/13 19:32:36;;;;;;;;;;;;;;;16.79;100.00;96371.69;11038663;26;3212;-69
2024/04/13 19:37:40;;;;;;;;;;;;;;;16.68;100.00;96368.34;11035051;26;2929;-69
2024/04/13 19:42:45;;;;;;;;;;;;;;;16.58;100.00;96373.94;11032798;26;2999;-70
2024/04/13 19:47:49;;;;;;;;;;;;;;;16.51;100.00;96379.72;11037824;26;2814;-67
2024/04/13 19:52:54;;;;;;;;;;;;;;;16.45;100.00;96370.88;11036324;26;3228;-70
2024/04/13 19:57:58;;;;;;;;;;;;;;;16.43;100.00;96370.38;11032322;26;2842;-69
2024/04/13 20:03:03;;;;;;;;;;;;;;;16.29;100.00;96364.09;11030982;26;3128;-74
2024/04/13 20:08:10;;;;;;;;;;;;;;;16.18;100.00;96358.00;11023291;26;3118;-70
2024/04/13 20:13:14;;;;;;;;;;;;;;;16.05;100.00;96368.78;11027690;26;3009;-70
2024/04/13 20:23:39;;;;;;;;;;;;;;;15.88;100.00;96367.38;11027244;26;3104;-69
2024/04/13 20:28:43;;;;;;;;;;;;;;;15.79;100.00;96365.66;11028706;26;3617;-70
2024/04/13 20:33:48;;;;;;;;;;;;;;;15.68;100.00;96362.25;11029925;26;3181;-71
2024/04/13 20:38:52;;;;;;;;;;;;;;;15.57;100.00;96364.25;11034555;26;3263;-70
2024/04/13 20:43:57;;;;;;;;;;;;;;;15.50;100.00;96371.94;11025311;26;3124;-70
2024/04/13 20:49:01;;;;;;;;;;;;;;;15.42;100.00;96364.44;11026117;26;3241;-71
2024/04/13 20:54:06;;;;;;;;;;;;;;;15.34;100.00;96365.09;11017807;26;2987;-70
2024/04/13 20:59:11;;;;;;;;;;;;;;;15.24;100.00;96359.78;11033244;26;2951;-71
2024/04/13 21:04:16;;;;;;;;;;;;;;;15.18;100.00;96352.81;11029467;26;3163;-73
2024/04/13 21:09:20;;;;;;;;;;;;;;;15.18;100.00;96352.81;11036899;26;2949;-70
2024/04/13 21:14:27;;;;;;;;;;;;;;;15.21;100.00;96353.06;11026833;26;3147;-70
2024/04/13 21:19:33;;;;;;;;;;;;;;;15.21;100.00;96355.78;11030994;26;3230;-70
2024/04/13 21:24:38;;;;;;;;;;;;;;;15.10;100.00;96352.38;11034415;26;3038;-70
2024/04/13 21:29:42;;;;;;;;;;;;;;;14.97;100.00;96349.53;11034808;26;3001;-70
2024/04/13 21:34:48;;;;;;;;;;;;;;;14.82;100.00;96345.06;10996821;26;2863;-73
2024/04/13 21:39:53;;;;;;;;;;;;;;;14.86;100.00;96346.13;11031491;26;3107;-72
2024/04/13 21:44:58;;;;;;;;;;;;;;;14.76;100.00;96335.41;11029926;26;2928;-71
2024/04/13 21:50:04;;;;;;;;;;;;;;;14.69;100.00;96326.81;11033396;26;3025;-74
2024/04/13 21:55:10;;;;;;;;;;;;;;;14.58;100.00;96326.94;11028323;26;2948;-72
2024/04/13 22:00:15;;;;;;;;;;;;;;;14.45;100.00;96316.75;11027879;26;2972;-70
2024/04/13 22:05:20;;;;;;;;;;;;;;;14.35;100.00;96316.81;11032042;26;3012;-70
2024/04/13 22:10:25;;;;;;;;;;;;;;;14.19;100.00;96315.34;11029375;26;2883;-70
2024/04/13 22:15:29;;;;;;;;;;;;;;;14.07;100.00;96313.81;11021066;26;3327;-70
2024/04/13 22:20:34;;;;;;;;;;;;;;;13.95;100.00;96316.06;11025234;26;3237;-69
2024/04/13 22:25:38;;;;;;;;;;;;;;;13.90;100.00;96318.00;11022439;26;3036;-70
2024/04/13 22:30:43;;;;;;;;;;;;;;;13.99;100.00;96314.41;11020400;26;2893;-70
2024/04/13 22:35:47;;;;;;;;;;;;;;;13.86;100.00;96306.94;11037921;26;2924;-71
2024/04/13 22:40:52;;;;;;;;;;;;;;;13.77;100.00;96304.03;11033431;26;3164;-70
2024/04/13 22:45:56;;;;;;;;;;;;;;;13.75;100.00;96308.09;11032473;26;3205;-70
2024/04/13 22:51:00;;;;;;;;;;;;;;;13.77;100.00;96303.22;11033297;26;3231;-70
2024/04/13 22:56:05;;;;;;;;;;;;;;;13.79;100.00;96292.94;11032442;26;3119;-73
2024/04/13 23:01:09;;;;;;;;;;;;;;;13.73;100.00;96304.88;11033262;26;3237;-71
2024/04/13 23:06:13;;;;;;;;;;;;;;;13.76;100.00;96297.00;11030390;26;3128;-70
2024/04/13 23:11:18;;;;;;;;;;;;;;;13.63;100.00;96291.44;11032632;26;3092;-70
2024/04/13 23:16:22;;;;;;;;;;;;;;;13.73;100.00;96289.47;11031816;26;2948;-71
2024/04/13 23:21:27;;;;;;;;;;;;;;;13.70;100.00;96281.94;11034848;26;3229;-70
2024/04/13 23:26:31;;;;;;;;;;;;;;;13.55;100.00;96279.34;11034848;26;2948;-70
2024/04/13 23:31:40;;;;;;;;;;;;;;;13.68;100.00;96277.91;11032135;26;3255;-70
2024/04/13 23:36:45;;;;;;;;;;;;;;;13.68;100.00;96264.41;11032483;26;3275;-71
2024/04/13 23:41:49;;;;;;;;;;;;;;;13.78;100.00;96264.31;11022907;26;3024;-69
2024/04/13 23:46:53;;;;;;;;;;;;;;;13.78;100.00;96267.81;11031541;26;2544;-69
2024/04/13 23:51:59;;;;;;;;;;;;;;;13.83;100.00;96264.28;11029124;26;3323;-70
2024/04/13 23:57:03;;;;;;;;;;;;;;;14.04;100.00;96254.09;11035727;26;2858;-69
